Home > Products > Valid Products > TAF

000
FTUS44 KBRO 261700
TAFHRL
TAF
KHRL 261736Z 2618/2718 20009KT P6SM SKC
     FM270200 16005KT P6SM SKC
     FM271500 36005KT P6SM SKC
     FM271700 06005KT P6SM SKC=



000
FTUS44 KBRO 261700
TAFMFE
TAF
KMFE 261736Z 2618/2718 17010KT P6SM SKC
     FM270200 15006KT P6SM SKC
     FM271000 VRB05KT P6SM SKC
     FM271500 36005KT P6SM SKC
     FM271700 10005KT P6SM SKC=



000
FTUS44 KBRO 261700
TAFBRO
TAF
KBRO 261736Z 2618/2718 20012KT P6SM SKC
     FM270100 16005KT P6SM SKC
     FM271500 36005KT P6SM SKC
     FM271700 06005KT P6SM SKC=



000
FTUS44 KBRO 261500 AAA
TAFMFE
TAF AMD
KMFE 261501Z 2615/2712 18008KT P6SM SKC
     FM270200 15006KT P6SM SKC
     FM271000 VRB05KT P6SM SKC=



000
FTUS44 KBRO 261100
TAFMFE
TAF
KMFE 261123Z 2612/2712 00000KT P6SM SKC
     FM261500 17009G15KT P6SM SKC
     FM270100 15006KT P6SM SKC=



000
FTUS44 KBRO 261100
TAFBRO
TAF
KBRO 261123Z 2612/2712 00000KT P6SM SKC
     FM261500 19009KT P6SM SKC
     FM270100 VRB03KT P6SM SKC=



000
FTUS44 KBRO 261100
TAFHRL
TAF
KHRL 261123Z 2612/2712 19004KT P6SM SKC
     FM261500 20010G16KT P6SM SKC
     FM270100 18005KT P6SM SKC=



000
FTUS44 KBRO 260500
TAFBRO
TAF
KBRO 260520Z 2606/2706 00000KT P6SM SKC
     FM261500 18010KT P6SM SKC
     FM270100 17002KT P6SM SKC=



000
FTUS44 KBRO 260500
TAFMFE
TAF
KMFE 260520Z 2606/2706 00000KT P6SM SKC
     FM261500 18010KT P6SM SKC
     FM270100 15003KT P6SM SKC=



000
FTUS44 KBRO 260500
TAFHRL
TAF
KHRL 260520Z 2606/2706 00000KT P6SM SKC
     FM261500 20010KT P6SM SKC
     FM270100 18003KT P6SM SKC=



000
FTUS44 KBRO 252300
TAFHRL
TAF
KHRL 252320Z 2600/2624 36005KT P6SM SKC
     FM260200 00000KT P6SM SKC
     FM261500 20010KT P6SM SKC=



000
FTUS44 KBRO 252300
TAFMFE
TAF
KMFE 252320Z 2600/2624 34008KT P6SM SKC
     FM260200 00000KT P6SM SKC
     FM261500 18010KT P6SM SKC=



000
FTUS44 KBRO 252300
TAFBRO
TAF
KBRO 252320Z 2600/2624 36005KT P6SM SKC
     FM260200 00000KT P6SM SKC
     FM261500 18010KT P6SM SKC=



000
FTUS44 KBRO 251700
TAFBRO
TAF
KBRO 251720Z 2518/2618 33008KT P6SM OVC110
     FM252300 VRB03KT P6SM SKC=



000
FTUS44 KBRO 251700
TAFMFE
TAF
KMFE 251720Z 2518/2618 36007KT P6SM SKC
     FM252300 VRB03KT P6SM SKC=



000
FTUS44 KBRO 251700
TAFHRL
TAF
KHRL 251720Z 2518/2618 34013KT P6SM BKN120
     FM252300 VRB03KT P6SM SKC=



000
FTUS44 KBRO 251100
TAFHRL
TAF
KHRL 251120Z 2512/2612 34006KT P6SM OVC100
     FM251700 35012G18KT P6SM BKN100 OVC250
     FM252300 VRB06KT P6SM SKC=



000
FTUS44 KBRO 251100
TAFMFE
TAF
KMFE 251120Z 2512/2612 34007KT P6SM OVC100
     FM251700 35012KT P6SM BKN100 OVC250
     FM252300 VRB05KT P6SM SKC=



000
FTUS44 KBRO 251100
TAFBRO
TAF
KBRO 251120Z 2512/2612 34006KT P6SM OVC090
     FM251700 36012G18KT P6SM BKN090 OVC250
     FM252300 VRB06KT P6SM SKC=



000
FTUS44 KBRO 250500
TAFMFE
TAF
KMFE 250521Z 2506/2606 VRB03KT P6SM SCT090
     FM251700 36012KT P6SM SKC
     FM260000 VRB03KT P6SM SKC=



000
FTUS44 KBRO 250500
TAFHRL
TAF
KHRL 250521Z 2506/2606 VRB03KT P6SM OVC090
     FM251700 01012KT P6SM SKC
     FM260000 VRB03KT P6SM SKC=



000
FTUS44 KBRO 250500
TAFBRO
TAF
KBRO 250521Z 2506/2606 34006KT P6SM OVC090
      TEMPO 2510/2513 SCT040 OVC090
     FM251800 01012KT P6SM SKC
     FM260000 36005KT P6SM SKC=



000
FTUS44 KBRO 242300 RRA
TAFBRO
TAF
KBRO 242343Z 2500/2524 02006KT P6SM SCT250
      TEMPO 2500/2502 02010KT
     FM251100 34008KT P6SM SCT040 BKN100
     FM251800 01012KT P6SM SKC=



000
FTUS44 KBRO 242300 RRA
TAFMFE
TAF
KMFE 242343Z 2500/2524 36006KT P6SM SKC
      TEMPO 2500/2502 36010KT
     FM251100 35006KT P6SM SCT080
     FM251700 36011KT P6SM SKC=



000
FTUS44 KBRO 242300 RRA
TAFHRL
TAF
KHRL 242343Z 2500/2524 03008KT P6SM SKC
     FM251200 35008KT P6SM BKN100
     FM251700 01012KT P6SM SKC=



000
FTUS44 KBRO 241700
TAFBRO
TAF
KBRO 241730Z 2418/2518 35012G18KT P6SM SKC
     FM242300 01008KT P6SM SCT250
     FM250200 01005KT P6SM SCT250=



000
FTUS44 KBRO 241700
TAFMFE
TAF
KMFE 241730Z 2418/2518 35014KT P6SM SCT250
     FM242300 01008KT P6SM SCT250
     FM250300 01005KT P6SM SCT250=



000
FTUS44 KBRO 241700
TAFHRL
TAF
KHRL 241730Z 2418/2518 36012G18KT P6SM SKC
     FM242300 02008KT P6SM SCT250
     FM250300 01004KT P6SM SCT250=



000
FTUS44 KBRO 241200 AAA
TAFBRO
TAF AMD
KBRO 241239Z 2413/2512 35012G18KT 2SM BR OVC002
     FM241300 36012G18KT 4SM BR BKN003
     FM241330 01014G20KT P6SM SCT250
     FM242300 01008KT P6SM SCT250=



000
FTUS44 KBRO 241200 AAA
TAFHRL
TAF AMD
KHRL 241217Z 2412/2512 36012G18KT 4SM BR SCT009 BKN250
     FM241300 01015G22KT P6SM SCT250
     FM242300 02008KT P6SM SCT250=



000
FTUS44 KBRO 241100
TAFBRO
TAF
KBRO 241137Z 2412/2512 VRB05KT 1/4SM FG VV002
     FM241230 34012KT 3/4SM BR BKN002
     FM241330 36014G20KT P6SM SCT250
     FM242300 01008KT P6SM SCT250=



000
FTUS44 KBRO 241100
TAFHRL
TAF
KHRL 241137Z 2412/2512 34012G18KT 3/4SM BR BKN002
     FM241300 01015G22KT 5SM BR SCT250
     FM241330 01015G22KT P6SM SCT250
     FM242300 02008KT P6SM SCT250=



000
FTUS44 KBRO 241100
TAFMFE
TAF
KMFE 241137Z 2412/2512 35011KT P6SM SCT250
     FM241300 36013G19KT P6SM SCT250
     FM242300 01008KT P6SM SCT250=



000
FTUS44 KBRO 241100 AAD
TAFMFE
TAF AMD
KMFE 241101Z 2411/2506 12003KT 1/2SM FG VV002
     FM241200 36012KT P6SM SCT250
     FM241300 36013G19KT P6SM SCT250
     FM242200 01010KT P6SM FEW250
     FM250200 04005KT P6SM SCT250=



000
FTUS44 KBRO 241000 AAC
TAFMFE
TAF AMD
KMFE 241054Z 2411/2506 12003KT 1SM BR FEW002 SCT250
     FM241200 36012KT P6SM SCT250
     FM241300 36013G19KT P6SM SCT250
     FM242200 01010KT P6SM FEW250
     FM250200 04005KT P6SM SCT250=



000
FTUS44 KBRO 241000 AAD
TAFHRL
TAF AMD
KHRL 241019Z 2410/2506 13002KT 1/4SM FG VV001
     FM241200 34008KT 2SM BR SCT250
     FM241300 33016G20KT P6SM SCT250
     FM241700 01015G22KT P6SM SCT250
     FM242200 03014KT P6SM FEW250
     FM250100 03005KT P6SM SCT250=



000
FTUS44 KBRO 241000 AAA
TAFBRO
TAF AMD
KBRO 241019Z 2410/2506 VRB05KT 1/4SM FG VV002
     FM241200 VRB05KT 2SM BR SCT250
     FM241300 36012G19KT P6SM SCT250
     FM242200 03014KT P6SM FEW250
     FM250000 01005KT P6SM SCT250=



000
FTUS44 KBRO 240900 AAB
TAFMFE
TAF AMD
KMFE 240901Z 2409/2506 12003KT 1SM BR FEW002 SCT250
     FM241100 36012KT P6SM SCT250
     FM241300 36013G19KT P6SM SCT250
     FM242200 01010KT P6SM FEW250
     FM250200 04005KT P6SM SCT250=



000
FTUS44 KBRO 240800 AAC
TAFHRL
TAF AMD
KHRL 240827Z 2408/2506 13002KT 1/4SM FG VV001
     FM241100 34008KT 2SM BR SCT250
     FM241300 33016G20KT P6SM SCT250
     FM241700 01015G22KT P6SM SCT250
     FM242200 03014KT P6SM FEW250
     FM250100 03005KT P6SM SCT250=



000
FTUS44 KBRO 240800 AAA
TAFBRO
TAF AMD
KBRO 240827Z 2408/2506 VRB05KT 1/4SM FG VV002
     FM241100 VRB05KT 2SM BR SCT250
     FM241300 36012G19KT P6SM SCT250
     FM242200 03014KT P6SM FEW250
     FM250000 01005KT P6SM SCT250=



000
FTUS44 KBRO 240800 AAA
TAFMFE
TAF AMD
KMFE 240824Z 2408/2506 12003KT 3SM BR FEW002 SCT250
     FM241100 36012KT P6SM SCT250
     FM241300 36013G19KT P6SM SCT250
     FM242200 01010KT P6SM FEW250
     FM250200 04005KT P6SM SCT250=



000
FTUS44 KBRO 240600 AAB
TAFHRL
TAF AMD
KHRL 240631Z 2407/2506 13002KT 1/4SM FG VV001
     FM241000 34008KT 3SM BR SCT250
     FM241300 33016G20KT P6SM SCT250
     FM241700 01015G22KT P6SM SCT250
     FM242200 03014KT P6SM FEW250
     FM250100 03005KT P6SM SCT250=



000
FTUS44 KBRO 240600 AAA
TAFHRL
TAF AMD
KHRL 240614Z 2406/2506 13002KT 1/2SM FG VV002
     FM241000 34008KT 3SM BR SCT250
     FM241300 33016G20KT P6SM SCT250
     FM241700 01015G22KT P6SM SCT250
     FM242200 03014KT P6SM FEW250
     FM250100 03005KT P6SM SCT250=



000
FTUS44 KBRO 240500
TAFHRL
TAF
KHRL 240525Z 2406/2506 15004KT P6SM SKC
     FM240700 28005KT 1/2SM FG VV002
     FM241000 34008KT P6SM SCT250
     FM241300 33016G20KT P6SM SCT250
     FM241700 01015G22KT P6SM SCT250
     FM242200 03014KT P6SM FEW250
     FM250100 03005KT P6SM SCT250=



000
FTUS44 KBRO 240500
TAFBRO
TAF
KBRO 240525Z 2406/2506 VRB05KT 1/4SM FG VV002
     FM241000 VRB05KT 3SM BR SCT250
     FM241300 36012G19KT P6SM SCT250
     FM242200 03014KT P6SM FEW250
     FM250000 01005KT P6SM SCT250=



000
FTUS44 KBRO 240500
TAFMFE
TAF
KMFE 240525Z 2406/2506 12003KT P6SM SKC
     FM240900 34005KT 4SM BR SCT250
     FM241100 36012KT P6SM SCT250
     FM241300 36013G19KT P6SM SCT250
     FM242200 01010KT P6SM FEW250
     FM250200 04005KT P6SM SCT250=



000
FTUS44 KBRO 240300 AAC
TAFBRO
TAF AMD
KBRO 240359Z 2404/2424 16003KT 3SM BR SKC
      TEMPO 2404/2407 1/2SM FG
     FM240700 VRB05KT 4SM BR SCT250
     FM241100 33009KT P6SM SCT250
     FM241300 36012G19KT P6SM SCT250
     FM242200 03014KT P6SM FEW250=



000
FTUS44 KBRO 240300 AAB
TAFBRO
TAF AMD
KBRO 240334Z 2404/2424 16003KT 4SM BR SKC
      TEMPO 2404/2407 2SM BR
     FM240700 VRB05KT 4SM BR SCT250
     FM241100 33009KT P6SM SCT250
     FM241300 36012G19KT P6SM SCT250
     FM242200 03014KT P6SM FEW250=



000
FTUS44 KBRO 240300 AAB
TAFBRO
TAF AMD
KBRO 240334Z 2404/2424 16003KT 4SM BR SKC
      TEMPO 2404/2407 2SM BR
     FM240700 VRB05KT 4SM BR SCT250
     FM241100 33009KT P6SM SCT250
     FM241300 36012G19KT P6SM SCT250
     FM242200 03014KT P6SM FEW250=



000
FTUS44 KBRO 240300 AAA
TAFBRO
TAF AMD
KBRO 240310Z 2403/2424 16003KT 5SM BR SKC
     FM240700 VRB05KT 4SM BR SCT250
     FM241100 33009KT P6SM SCT250
     FM241300 36012G19KT P6SM SCT250
     FM242200 03014KT P6SM FEW250=



000
FTUS44 KBRO 240300 AAA
TAFBRO
TAF AMD
KBRO 240310Z 2403/2424 16003KT 5SM BR SKC
     FM240700 VRB05KT 4SM BR SCT250
     FM241100 33009KT P6SM SCT250
     FM241300 36012G19KT P6SM SCT250
     FM242200 03014KT P6SM FEW250=



000
FTUS44 KBRO 232300
TAFHRL
TAF
KHRL 232335Z 2400/2424 17009KT P6SM FEW250
     FM240700 28005KT 4SM BR FEW250
     FM241100 34008KT P6SM SCT250
     FM241300 33016G20KT P6SM SCT250
     FM241700 01015G22KT P6SM SCT250
     FM242200 03014KT P6SM FEW250=



000
FTUS44 KBRO 232300
TAFMFE
TAF
KMFE 232335Z 2400/2424 18004KT P6SM FEW250
     FM240900 34005KT 4SM BR SCT250
     FM241100 36012KT P6SM SCT250
     FM241200 36013G19KT P6SM SCT250
     FM242200 01010KT P6SM FEW250=



000
FTUS44 KBRO 232300
TAFBRO
TAF
KBRO 232335Z 2400/2424 17006KT P6SM FEW250
     FM240700 VRB05KT 4SM BR SCT250
     FM241100 33009KT P6SM SCT250
     FM241300 36012G19KT P6SM SCT250
     FM242200 03014KT P6SM FEW250=



000
FTUS44 KBRO 232100 AAA
TAFBRO
TAF AMD
KBRO 232128Z 2321/2418 17013KT P6SM SKC
     FM240000 16006KT P6SM SKC
     FM241200 34013G20KT P6SM OVC250=



000
FTUS44 KBRO 232100 AAA
TAFBRO
TAF AMD
KBRO 232128Z 2321/2418 17013KT P6SM SKC
     FM240000 16006KT P6SM SKC
     FM241200 34013G20KT P6SM OVC250=



    US Dept of Commerce
    National Oceanic and Atmospheric Administration
    National Weather Service
    1325 East West Highway
    Silver Spring, MD 20910
    Page Author: NWS Internet Services Team
Disclaimer
Information Quality
Credits
Glossary
Privacy Policy
Freedom of Information Act (FOIA)
About Us
Career Opportunities